DJO weather

Daloa Airport
Haut-Sassandra, Côte d'Ivoire

Public forecast

Using degrees Celsius for public forecast. Weather courtesy of forecast.io.

Current aviation weather report (METAR) for Daloa Airport

Report is more than 6 hours old.

Retrieved 2017/12/31 03:00 UTC (2 years ago):

DIDL 310300Z ///// 6000 NSC 23/23 Q1013 NOSIG

Closest aviation forecast (TAF) to Daloa Airport

Closest forecast is Yamoussoukro Airport, 66.4 nm (122.9 km) E. Retrieved 2019/10/23 06:00 UTC (3 hours ago):

TAF DIYO 230500Z 2306/2406 22003KT 8000 SCT013 TEMPO 2306/2408 4000 BR BKN009 PROB30 TEMPO 2316/2422 TS BKN013 FEW025CB